sensor_id;sensor_type;location;lat;lon;timestamp;temperature;humidity
3758;DHT22;1894;51.038;13.692;2024-01-16T00:01:00;1.10;99.90
3758;DHT22;1894;51.038;13.692;2024-01-16T00:03:27;1.10;99.90
3758;DHT22;1894;51.038;13.692;2024-01-16T00:05:54;1.20;99.90
3758;DHT22;1894;51.038;13.692;2024-01-16T00:08:22;1.10;99.90
3758;DHT22;1894;51.038;13.692;2024-01-16T00:10:50;1.20;99.90
3758;DHT22;1894;51.038;13.692;2024-01-16T00:13:17;1.20;99.90
3758;DHT22;1894;51.038;13.692;2024-01-16T00:15:45;1.20;99.90
3758;DHT22;1894;51.038;13.692;2024-01-16T00:18:12;1.30;99.90
3758;DHT22;1894;51.038;13.692;2024-01-16T00:20:40;1.10;99.90
3758;DHT22;1894;51.038;13.692;2024-01-16T00:23:07;1.00;99.90
3758;DHT22;1894;51.038;13.692;2024-01-16T00:25:35;1.10;99.90
3758;DHT22;1894;51.038;13.692;2024-01-16T00:28:02;0.90;99.90
3758;DHT22;1894;51.038;13.692;2024-01-16T00:30:29;0.70;99.90
3758;DHT22;1894;51.038;13.692;2024-01-16T00:32:57;0.50;99.90
3758;DHT22;1894;51.038;13.692;2024-01-16T00:35:25;0.50;99.90
3758;DHT22;1894;51.038;13.692;2024-01-16T00:37:52;0.50;99.90
3758;DHT22;1894;51.038;13.692;2024-01-16T00:40:19;0.50;99.90
3758;DHT22;1894;51.038;13.692;2024-01-16T00:42:46;0.50;99.90
3758;DHT22;1894;51.038;13.692;2024-01-16T00:45:14;0.50;99.90
3758;DHT22;1894;51.038;13.692;2024-01-16T00:47:41;0.50;99.90
3758;DHT22;1894;51.038;13.692;2024-01-16T00:50:08;0.50;99.90
3758;DHT22;1894;51.038;13.692;2024-01-16T00:52:36;0.40;99.90
3758;DHT22;1894;51.038;13.692;2024-01-16T00:55:04;0.40;99.90
3758;DHT22;1894;51.038;13.692;2024-01-16T00:57:31;0.40;99.90
3758;DHT22;1894;51.038;13.692;2024-01-16T00:59:59;0.50;99.90
3758;DHT22;1894;51.038;13.692;2024-01-16T01:02:26;0.50;99.90
3758;DHT22;1894;51.038;13.692;2024-01-16T01:04:53;0.50;99.90
3758;DHT22;1894;51.038;13.692;2024-01-16T01:07:20;0.40;99.90
3758;DHT22;1894;51.038;13.692;2024-01-16T01:09:47;0.50;99.90
3758;DHT22;1894;51.038;13.692;2024-01-16T01:12:14;0.50;99.90
3758;DHT22;1894;51.038;13.692;2024-01-16T01:14:42;0.60;99.90
3758;DHT22;1894;51.038;13.692;2024-01-16T01:17:09;0.60;99.90
3758;DHT22;1894;51.038;13.692;2024-01-16T01:19:36;0.60;99.90
3758;DHT22;1894;51.038;13.692;2024-01-16T01:22:03;0.60;99.90
3758;DHT22;1894;51.038;13.692;2024-01-16T01:24:31;0.50;99.90
3758;DHT22;1894;51.038;13.692;2024-01-16T01:26:58;0.30;99.90
3758;DHT22;1894;51.038;13.692;2024-01-16T01:29:25;0.20;99.90
3758;DHT22;1894;51.038;13.692;2024-01-16T01:31:52;0.10;99.90
3758;DHT22;1894;51.038;13.692;2024-01-16T01:34:19;0.10;99.90
3758;DHT22;1894;51.038;13.692;2024-01-16T01:36:47;0.10;99.90
3758;DHT22;1894;51.038;13.692;2024-01-16T01:39:14;0.10;99.90
3758;DHT22;1894;51.038;13.692;2024-01-16T01:41:41;0.20;99.90
3758;DHT22;1894;51.038;13.692;2024-01-16T01:44:09;0.20;99.90
3758;DHT22;1894;51.038;13.692;2024-01-16T01:46:43;0.10;99.90
3758;DHT22;1894;51.038;13.692;2024-01-16T01:49:12;0.20;99.90
3758;DHT22;1894;51.038;13.692;2024-01-16T01:51:40;0.10;99.90
3758;DHT22;1894;51.038;13.692;2024-01-16T01:54:08;0.20;99.90
3758;DHT22;1894;51.038;13.692;2024-01-16T01:56:36;0.30;99.90
3758;DHT22;1894;51.038;13.692;2024-01-16T01:59:04;0.30;99.90
3758;DHT22;1894;51.038;13.692;2024-01-16T02:01:34;0.40;99.90
3758;DHT22;1894;51.038;13.692;2024-01-16T02:04:02;0.50;99.90
3758;DHT22;1894;51.038;13.692;2024-01-16T02:06:29;0.50;99.90
3758;DHT22;1894;51.038;13.692;2024-01-16T02:08:57;0.60;99.90
3758;DHT22;1894;51.038;13.692;2024-01-16T02:11:25;0.60;99.90
3758;DHT22;1894;51.038;13.692;2024-01-16T02:13:52;0.70;99.90
3758;DHT22;1894;51.038;13.692;2024-01-16T02:16:20;0.70;99.90
3758;DHT22;1894;51.038;13.692;2024-01-16T02:18:49;0.70;99.90
3758;DHT22;1894;51.038;13.692;2024-01-16T02:21:20;0.60;99.90
3758;DHT22;1894;51.038;13.692;2024-01-16T02:23:48;0.50;99.90
3758;DHT22;1894;51.038;13.692;2024-01-16T02:26:17;0.50;99.90
3758;DHT22;1894;51.038;13.692;2024-01-16T02:28:45;0.50;99.90
3758;DHT22;1894;51.038;13.692;2024-01-16T02:31:13;0.60;99.90
3758;DHT22;1894;51.038;13.692;2024-01-16T02:33:40;0.60;99.90
3758;DHT22;1894;51.038;13.692;2024-01-16T02:36:07;0.70;99.90
3758;DHT22;1894;51.038;13.692;2024-01-16T02:38:35;0.60;99.90
3758;DHT22;1894;51.038;13.692;2024-01-16T02:41:02;0.50;99.90
3758;DHT22;1894;51.038;13.692;2024-01-16T02:43:29;0.60;99.90
3758;DHT22;1894;51.038;13.692;2024-01-16T02:45:56;0.50;99.90
3758;DHT22;1894;51.038;13.692;2024-01-16T02:48:25;0.40;99.90
3758;DHT22;1894;51.038;13.692;2024-01-16T02:50:52;0.50;99.90
3758;DHT22;1894;51.038;13.692;2024-01-16T02:53:20;0.60;99.90
3758;DHT22;1894;51.038;13.692;2024-01-16T02:55:47;0.50;99.90
3758;DHT22;1894;51.038;13.692;2024-01-16T02:58:14;0.50;99.90
3758;DHT22;1894;51.038;13.692;2024-01-16T03:00:41;0.50;99.90
3758;DHT22;1894;51.038;13.692;2024-01-16T03:03:08;0.40;99.90
3758;DHT22;1894;51.038;13.692;2024-01-16T03:05:36;0.50;99.90
3758;DHT22;1894;51.038;13.692;2024-01-16T03:08:03;0.50;99.90
3758;DHT22;1894;51.038;13.692;2024-01-16T03:10:31;0.50;99.90
3758;DHT22;1894;51.038;13.692;2024-01-16T03:12:58;0.50;99.90
3758;DHT22;1894;51.038;13.692;2024-01-16T03:15:25;0.60;99.90
3758;DHT22;1894;51.038;13.692;2024-01-16T03:17:53;0.70;99.90
3758;DHT22;1894;51.038;13.692;2024-01-16T03:20:20;0.80;99.90
3758;DHT22;1894;51.038;13.692;2024-01-16T03:22:49;0.90;99.90
3758;DHT22;1894;51.038;13.692;2024-01-16T03:25:17;1.00;99.90
3758;DHT22;1894;51.038;13.692;2024-01-16T03:27:44;1.00;99.90
3758;DHT22;1894;51.038;13.692;2024-01-16T03:30:11;1.10;99.90
3758;DHT22;1894;51.038;13.692;2024-01-16T03:32:39;1.10;99.90
3758;DHT22;1894;51.038;13.692;2024-01-16T03:35:07;1.20;99.90
3758;DHT22;1894;51.038;13.692;2024-01-16T03:37:34;1.10;99.90
3758;DHT22;1894;51.038;13.692;2024-01-16T03:40:02;1.10;99.90
3758;DHT22;1894;51.038;13.692;2024-01-16T03:42:29;1.10;99.90
3758;DHT22;1894;51.038;13.692;2024-01-16T03:44:57;0.60;99.90
3758;DHT22;1894;51.038;13.692;2024-01-16T03:47:24;0.50;99.90
3758;DHT22;1894;51.038;13.692;2024-01-16T03:49:51;0.50;99.90
3758;DHT22;1894;51.038;13.692;2024-01-16T03:52:19;0.40;99.90
3758;DHT22;1894;51.038;13.692;2024-01-16T03:54:46;0.50;99.90
3758;DHT22;1894;51.038;13.692;2024-01-16T03:57:13;0.60;99.90
3758;DHT22;1894;51.038;13.692;2024-01-16T03:59:40;0.50;99.90
3758;DHT22;1894;51.038;13.692;2024-01-16T04:02:08;0.60;99.90
3758;DHT22;1894;51.038;13.692;2024-01-16T04:04:35;0.50;99.90
3758;DHT22;1894;51.038;13.692;2024-01-16T04:07:02;0.50;99.90
3758;DHT22;1894;51.038;13.692;2024-01-16T04:09:29;0.60;99.90
3758;DHT22;1894;51.038;13.692;2024-01-16T04:11:58;0.70;99.90
3758;DHT22;1894;51.038;13.692;2024-01-16T04:14:25;0.70;99.90
3758;DHT22;1894;51.038;13.692;2024-01-16T04:16:52;0.60;99.90
3758;DHT22;1894;51.038;13.692;2024-01-16T04:19:20;0.60;99.90
3758;DHT22;1894;51.038;13.692;2024-01-16T04:21:47;0.70;99.90
3758;DHT22;1894;51.038;13.692;2024-01-16T04:24:14;0.80;99.90
3758;DHT22;1894;51.038;13.692;2024-01-16T04:26:41;0.80;99.90
3758;DHT22;1894;51.038;13.692;2024-01-16T04:29:08;0.90;99.90
3758;DHT22;1894;51.038;13.692;2024-01-16T04:31:40;0.80;99.90
3758;DHT22;1894;51.038;13.692;2024-01-16T04:34:10;0.80;99.90
3758;DHT22;1894;51.038;13.692;2024-01-16T04:36:38;0.80;99.90
3758;DHT22;1894;51.038;13.692;2024-01-16T04:39:05;0.80;99.90
3758;DHT22;1894;51.038;13.692;2024-01-16T04:41:32;0.90;99.90
3758;DHT22;1894;51.038;13.692;2024-01-16T04:43:59;0.90;99.90
3758;DHT22;1894;51.038;13.692;2024-01-16T04:46:27;0.90;99.90
3758;DHT22;1894;51.038;13.692;2024-01-16T04:48:55;1.00;99.90
3758;DHT22;1894;51.038;13.692;2024-01-16T04:51:22;1.00;99.90
3758;DHT22;1894;51.038;13.692;2024-01-16T04:53:49;1.00;99.90
3758;DHT22;1894;51.038;13.692;2024-01-16T04:56:16;1.00;99.90
3758;DHT22;1894;51.038;13.692;2024-01-16T04:58:43;1.10;99.90
3758;DHT22;1894;51.038;13.692;2024-01-16T05:01:12;1.10;99.90
3758;DHT22;1894;51.038;13.692;2024-01-16T05:03:40;1.10;99.90
3758;DHT22;1894;51.038;13.692;2024-01-16T05:06:16;1.00;99.90
3758;DHT22;1894;51.038;13.692;2024-01-16T05:08:43;1.00;99.90
3758;DHT22;1894;51.038;13.692;2024-01-16T05:11:11;0.90;99.90
3758;DHT22;1894;51.038;13.692;2024-01-16T05:13:38;0.90;99.90
3758;DHT22;1894;51.038;13.692;2024-01-16T05:16:06;0.90;99.90
3758;DHT22;1894;51.038;13.692;2024-01-16T05:18:33;1.00;99.90
3758;DHT22;1894;51.038;13.692;2024-01-16T05:21:00;1.00;99.90
3758;DHT22;1894;51.038;13.692;2024-01-16T05:23:29;1.10;99.90
3758;DHT22;1894;51.038;13.692;2024-01-16T05:25:56;1.10;99.90
3758;DHT22;1894;51.038;13.692;2024-01-16T05:28:23;1.10;99.90
3758;DHT22;1894;51.038;13.692;2024-01-16T05:30:50;1.20;99.90
3758;DHT22;1894;51.038;13.692;2024-01-16T05:33:18;1.20;99.90
3758;DHT22;1894;51.038;13.692;2024-01-16T05:35:45;1.20;99.90
3758;DHT22;1894;51.038;13.692;2024-01-16T05:38:12;1.20;99.90
3758;DHT22;1894;51.038;13.692;2024-01-16T05:40:39;1.20;99.90
3758;DHT22;1894;51.038;13.692;2024-01-16T05:43:08;1.20;99.90
3758;DHT22;1894;51.038;13.692;2024-01-16T05:45:35;1.20;99.90
3758;DHT22;1894;51.038;13.692;2024-01-16T05:48:03;1.30;99.90
3758;DHT22;1894;51.038;13.692;2024-01-16T05:50:30;1.40;99.90
3758;DHT22;1894;51.038;13.692;2024-01-16T05:52:58;1.30;99.90
3758;DHT22;1894;51.038;13.692;2024-01-16T05:55:25;1.30;99.90
3758;DHT22;1894;51.038;13.692;2024-01-16T05:57:52;1.20;99.90
3758;DHT22;1894;51.038;13.692;2024-01-16T06:00:19;1.20;99.90
3758;DHT22;1894;51.038;13.692;2024-01-16T06:02:49;1.10;99.90
3758;DHT22;1894;51.038;13.692;2024-01-16T06:05:16;1.10;99.90
3758;DHT22;1894;51.038;13.692;2024-01-16T06:07:43;1.10;99.90
3758;DHT22;1894;51.038;13.692;2024-01-16T06:10:13;1.00;99.90
3758;DHT22;1894;51.038;13.692;2024-01-16T06:12:41;1.00;99.90
3758;DHT22;1894;51.038;13.692;2024-01-16T06:15:08;0.60;99.90
3758;DHT22;1894;51.038;13.692;2024-01-16T06:17:38;0.40;99.90
3758;DHT22;1894;51.038;13.692;2024-01-16T06:20:06;0.30;99.90
3758;DHT22;1894;51.038;13.692;2024-01-16T06:22:33;0.40;99.90
3758;DHT22;1894;51.038;13.692;2024-01-16T06:25:01;0.40;99.90
3758;DHT22;1894;51.038;13.692;2024-01-16T06:27:29;0.50;99.90
3758;DHT22;1894;51.038;13.692;2024-01-16T06:29:56;0.40;99.90
3758;DHT22;1894;51.038;13.692;2024-01-16T06:32:23;0.50;99.90
3758;DHT22;1894;51.038;13.692;2024-01-16T06:34:51;0.50;99.90
3758;DHT22;1894;51.038;13.692;2024-01-16T06:37:18;0.50;99.90
3758;DHT22;1894;51.038;13.692;2024-01-16T06:39:46;0.50;99.90
3758;DHT22;1894;51.038;13.692;2024-01-16T06:42:13;0.40;99.90
3758;DHT22;1894;51.038;13.692;2024-01-16T06:44:41;0.50;99.90
3758;DHT22;1894;51.038;13.692;2024-01-16T06:47:08;0.50;99.90
3758;DHT22;1894;51.038;13.692;2024-01-16T06:49:36;0.60;99.90
3758;DHT22;1894;51.038;13.692;2024-01-16T06:52:04;0.60;99.90
3758;DHT22;1894;51.038;13.692;2024-01-16T06:54:31;0.60;99.90
3758;DHT22;1894;51.038;13.692;2024-01-16T06:56:59;0.50;99.90
3758;DHT22;1894;51.038;13.692;2024-01-16T06:59:26;0.60;99.90
3758;DHT22;1894;51.038;13.692;2024-01-16T07:02:10;0.50;99.90
3758;DHT22;1894;51.038;13.692;2024-01-16T07:04:38;0.50;99.90
3758;DHT22;1894;51.038;13.692;2024-01-16T07:07:05;0.60;99.90
3758;DHT22;1894;51.038;13.692;2024-01-16T07:09:33;0.60;99.90
3758;DHT22;1894;51.038;13.692;2024-01-16T07:12:00;0.70;99.90
3758;DHT22;1894;51.038;13.692;2024-01-16T07:14:28;0.70;99.90
3758;DHT22;1894;51.038;13.692;2024-01-16T07:16:55;0.70;99.90
3758;DHT22;1894;51.038;13.692;2024-01-16T07:19:22;0.80;99.90
3758;DHT22;1894;51.038;13.692;2024-01-16T07:21:50;0.80;99.90
3758;DHT22;1894;51.038;13.692;2024-01-16T07:24:19;0.90;99.90
3758;DHT22;1894;51.038;13.692;2024-01-16T07:26:47;0.90;99.90
3758;DHT22;1894;51.038;13.692;2024-01-16T07:29:14;0.90;99.90
3758;DHT22;1894;51.038;13.692;2024-01-16T07:31:41;1.00;99.90
3758;DHT22;1894;51.038;13.692;2024-01-16T07:34:08;0.90;99.90
3758;DHT22;1894;51.038;13.692;2024-01-16T07:36:35;0.90;99.90
3758;DHT22;1894;51.038;13.692;2024-01-16T07:39:03;1.00;99.90
3758;DHT22;1894;51.038;13.692;2024-01-16T07:41:30;1.00;99.90
3758;DHT22;1894;51.038;13.692;2024-01-16T07:43:57;1.00;99.90
3758;DHT22;1894;51.038;13.692;2024-01-16T07:46:24;1.00;99.90
3758;DHT22;1894;51.038;13.692;2024-01-16T07:48:52;1.10;99.90
3758;DHT22;1894;51.038;13.692;2024-01-16T07:51:19;1.10;99.90
3758;DHT22;1894;51.038;13.692;2024-01-16T07:53:46;1.20;99.90
3758;DHT22;1894;51.038;13.692;2024-01-16T07:56:16;1.20;99.90
3758;DHT22;1894;51.038;13.692;2024-01-16T07:58:43;1.30;99.90
3758;DHT22;1894;51.038;13.692;2024-01-16T08:01:10;1.40;99.90
3758;DHT22;1894;51.038;13.692;2024-01-16T08:03:37;1.30;99.90
3758;DHT22;1894;51.038;13.692;2024-01-16T08:06:05;1.30;99.90
3758;DHT22;1894;51.038;13.692;2024-01-16T08:08:33;1.30;99.90
3758;DHT22;1894;51.038;13.692;2024-01-16T08:11:01;1.40;99.90
3758;DHT22;1894;51.038;13.692;2024-01-16T08:13:28;1.40;99.90
3758;DHT22;1894;51.038;13.692;2024-01-16T08:15:55;1.40;99.90
3758;DHT22;1894;51.038;13.692;2024-01-16T08:18:22;1.50;99.90
3758;DHT22;1894;51.038;13.692;2024-01-16T08:20:49;1.40;99.90
3758;DHT22;1894;51.038;13.692;2024-01-16T08:23:17;1.40;99.90
3758;DHT22;1894;51.038;13.692;2024-01-16T08:25:44;1.30;99.90
3758;DHT22;1894;51.038;13.692;2024-01-16T08:28:11;1.30;99.90
3758;DHT22;1894;51.038;13.692;2024-01-16T08:30:38;1.30;99.90
3758;DHT22;1894;51.038;13.692;2024-01-16T08:33:06;1.40;99.90
3758;DHT22;1894;51.038;13.692;2024-01-16T08:35:34;1.50;99.90
3758;DHT22;1894;51.038;13.692;2024-01-16T08:38:01;1.50;99.90
3758;DHT22;1894;51.038;13.692;2024-01-16T08:40:28;1.50;99.90
3758;DHT22;1894;51.038;13.692;2024-01-16T08:42:56;1.50;99.90
3758;DHT22;1894;51.038;13.692;2024-01-16T08:45:24;1.60;99.90
3758;DHT22;1894;51.038;13.692;2024-01-16T08:47:53;1.70;99.90
3758;DHT22;1894;51.038;13.692;2024-01-16T08:50:20;1.80;99.90
3758;DHT22;1894;51.038;13.692;2024-01-16T08:52:47;1.70;99.90
3758;DHT22;1894;51.038;13.692;2024-01-16T08:55:15;1.80;99.90
3758;DHT22;1894;51.038;13.692;2024-01-16T08:57:42;1.70;99.90
3758;DHT22;1894;51.038;13.692;2024-01-16T09:00:09;1.80;99.90
3758;DHT22;1894;51.038;13.692;2024-01-16T09:02:37;1.50;99.90
3758;DHT22;1894;51.038;13.692;2024-01-16T09:05:04;1.40;99.90
3758;DHT22;1894;51.038;13.692;2024-01-16T09:07:32;1.70;99.90
3758;DHT22;1894;51.038;13.692;2024-01-16T09:09:59;1.80;99.90
3758;DHT22;1894;51.038;13.692;2024-01-16T09:12:26;1.80;99.90
3758;DHT22;1894;51.038;13.692;2024-01-16T09:14:53;1.80;99.90
3758;DHT22;1894;51.038;13.692;2024-01-16T09:17:20;1.70;99.90
3758;DHT22;1894;51.038;13.692;2024-01-16T09:19:48;1.80;99.90
3758;DHT22;1894;51.038;13.692;2024-01-16T09:22:15;1.80;99.90
3758;DHT22;1894;51.038;13.692;2024-01-16T09:24:43;1.80;99.90
3758;DHT22;1894;51.038;13.692;2024-01-16T09:27:10;2.10;99.90
3758;DHT22;1894;51.038;13.692;2024-01-16T09:29:37;2.20;99.90
3758;DHT22;1894;51.038;13.692;2024-01-16T09:32:05;2.50;99.90
3758;DHT22;1894;51.038;13.692;2024-01-16T09:34:32;2.30;99.90
3758;DHT22;1894;51.038;13.692;2024-01-16T09:36:59;2.20;99.90
3758;DHT22;1894;51.038;13.692;2024-01-16T09:39:29;2.30;99.90
3758;DHT22;1894;51.038;13.692;2024-01-16T09:42:01;2.10;99.90
3758;DHT22;1894;51.038;13.692;2024-01-16T09:44:29;2.00;99.90
3758;DHT22;1894;51.038;13.692;2024-01-16T09:46:58;1.80;99.90
3758;DHT22;1894;51.038;13.692;2024-01-16T09:49:26;2.00;99.90
3758;DHT22;1894;51.038;13.692;2024-01-16T09:51:54;1.80;99.90
3758;DHT22;1894;51.038;13.692;2024-01-16T09:54:21;1.80;99.90
3758;DHT22;1894;51.038;13.692;2024-01-16T09:56:51;1.90;99.90
3758;DHT22;1894;51.038;13.692;2024-01-16T09:59:20;2.00;99.90
3758;DHT22;1894;51.038;13.692;2024-01-16T10:01:49;2.20;99.90
3758;DHT22;1894;51.038;13.692;2024-01-16T10:04:18;2.60;99.90
3758;DHT22;1894;51.038;13.692;2024-01-16T10:06:46;2.70;99.90
3758;DHT22;1894;51.038;13.692;2024-01-16T10:09:15;2.30;99.90
3758;DHT22;1894;51.038;13.692;2024-01-16T10:11:42;2.40;99.90
3758;DHT22;1894;51.038;13.692;2024-01-16T10:14:10;2.40;99.90
3758;DHT22;1894;51.038;13.692;2024-01-16T10:17:00;2.70;99.90
3758;DHT22;1894;51.038;13.692;2024-01-16T10:19:48;2.30;99.90
3758;DHT22;1894;51.038;13.692;2024-01-16T10:22:24;2.20;99.90
3758;DHT22;1894;51.038;13.692;2024-01-16T10:25:12;2.30;99.90
3758;DHT22;1894;51.038;13.692;2024-01-16T10:27:44;2.40;99.90
3758;DHT22;1894;51.038;13.692;2024-01-16T10:30:12;2.80;99.90
3758;DHT22;1894;51.038;13.692;2024-01-16T10:32:41;2.50;99.90
3758;DHT22;1894;51.038;13.692;2024-01-16T10:35:11;2.70;99.90
3758;DHT22;1894;51.038;13.692;2024-01-16T10:37:51;3.10;99.90
3758;DHT22;1894;51.038;13.692;2024-01-16T10:40:21;2.60;99.90
3758;DHT22;1894;51.038;13.692;2024-01-16T10:43:02;2.40;99.90
3758;DHT22;1894;51.038;13.692;2024-01-16T10:45:34;2.60;99.90
3758;DHT22;1894;51.038;13.692;2024-01-16T10:48:06;2.80;99.90
3758;DHT22;1894;51.038;13.692;2024-01-16T10:50:36;2.90;99.90
3758;DHT22;1894;51.038;13.692;2024-01-16T10:53:06;2.80;99.90
3758;DHT22;1894;51.038;13.692;2024-01-16T10:58:22;2.60;99.90
3758;DHT22;1894;51.038;13.692;2024-01-16T11:00:52;2.60;99.90
3758;DHT22;1894;51.038;13.692;2024-01-16T11:06:10;2.80;99.90
3758;DHT22;1894;51.038;13.692;2024-01-16T11:08:39;2.80;99.90
3758;DHT22;1894;51.038;13.692;2024-01-16T11:11:07;2.70;99.90
3758;DHT22;1894;51.038;13.692;2024-01-16T11:13:36;2.80;99.90
3758;DHT22;1894;51.038;13.692;2024-01-16T11:16:04;3.00;99.90
3758;DHT22;1894;51.038;13.692;2024-01-16T11:18:33;3.20;99.90
3758;DHT22;1894;51.038;13.692;2024-01-16T11:21:10;3.40;99.90
3758;DHT22;1894;51.038;13.692;2024-01-16T11:23:44;3.50;99.90
3758;DHT22;1894;51.038;13.692;2024-01-16T11:26:33;3.80;99.90
3758;DHT22;1894;51.038;13.692;2024-01-16T11:31:57;4.00;99.90
3758;DHT22;1894;51.038;13.692;2024-01-16T11:37:14;4.10;99.90
3758;DHT22;1894;51.038;13.692;2024-01-16T11:39:42;4.30;99.90
3758;DHT22;1894;51.038;13.692;2024-01-16T11:42:09;5.00;99.90
3758;DHT22;1894;51.038;13.692;2024-01-16T11:47:08;5.00;99.90
3758;DHT22;1894;51.038;13.692;2024-01-16T11:49:37;5.00;99.90
3758;DHT22;1894;51.038;13.692;2024-01-16T11:52:04;4.80;99.90
3758;DHT22;1894;51.038;13.692;2024-01-16T11:54:33;4.50;99.90
3758;DHT22;1894;51.038;13.692;2024-01-16T12:00:04;4.90;99.90
3758;DHT22;1894;51.038;13.692;2024-01-16T12:05:12;4.30;99.90
3758;DHT22;1894;51.038;13.692;2024-01-16T12:07:45;4.20;99.90
3758;DHT22;1894;51.038;13.692;2024-01-16T12:10:17;4.00;99.90
3758;DHT22;1894;51.038;13.692;2024-01-16T12:12:46;4.30;99.90
3758;DHT22;1894;51.038;13.692;2024-01-16T12:15:19;4.10;99.90
3758;DHT22;1894;51.038;13.692;2024-01-16T12:18:02;4.30;99.90
3758;DHT22;1894;51.038;13.692;2024-01-16T12:20:45;4.20;99.90
3758;DHT22;1894;51.038;13.692;2024-01-16T12:23:13;4.60;99.90
3758;DHT22;1894;51.038;13.692;2024-01-16T12:25:41;4.80;99.90
3758;DHT22;1894;51.038;13.692;2024-01-16T12:28:28;4.20;99.90
3758;DHT22;1894;51.038;13.692;2024-01-16T12:30:59;4.00;99.90
3758;DHT22;1894;51.038;13.692;2024-01-16T12:33:28;3.80;99.90
3758;DHT22;1894;51.038;13.692;2024-01-16T12:36:03;3.70;99.90
3758;DHT22;1894;51.038;13.692;2024-01-16T12:38:32;3.70;99.90
3758;DHT22;1894;51.038;13.692;2024-01-16T12:41:00;3.30;99.90
3758;DHT22;1894;51.038;13.692;2024-01-16T12:43:31;3.00;99.90
3758;DHT22;1894;51.038;13.692;2024-01-16T12:45:59;2.70;99.90
3758;DHT22;1894;51.038;13.692;2024-01-16T12:48:26;3.10;99.90
3758;DHT22;1894;51.038;13.692;2024-01-16T12:51:01;2.90;99.90
3758;DHT22;1894;51.038;13.692;2024-01-16T12:53:31;3.00;99.90
3758;DHT22;1894;51.038;13.692;2024-01-16T12:56:01;3.00;99.90
3758;DHT22;1894;51.038;13.692;2024-01-16T12:58:36;3.40;99.90
3758;DHT22;1894;51.038;13.692;2024-01-16T13:01:26;3.50;99.90
3758;DHT22;1894;51.038;13.692;2024-01-16T13:04:06;3.60;99.90
3758;DHT22;1894;51.038;13.692;2024-01-16T13:06:34;3.70;99.90
3758;DHT22;1894;51.038;13.692;2024-01-16T13:09:12;3.50;99.90
3758;DHT22;1894;51.038;13.692;2024-01-16T13:11:55;3.60;99.90
3758;DHT22;1894;51.038;13.692;2024-01-16T13:14:25;3.30;99.90
3758;DHT22;1894;51.038;13.692;2024-01-16T13:16:53;2.90;99.90
3758;DHT22;1894;51.038;13.692;2024-01-16T13:19:23;3.00;99.90
3758;DHT22;1894;51.038;13.692;2024-01-16T13:21:52;2.80;99.90
3758;DHT22;1894;51.038;13.692;2024-01-16T13:24:20;2.80;99.90
3758;DHT22;1894;51.038;13.692;2024-01-16T13:26:51;2.70;99.90
3758;DHT22;1894;51.038;13.692;2024-01-16T13:29:19;2.90;99.90
3758;DHT22;1894;51.038;13.692;2024-01-16T13:31:46;3.00;99.90
3758;DHT22;1894;51.038;13.692;2024-01-16T13:34:15;3.40;99.90
3758;DHT22;1894;51.038;13.692;2024-01-16T13:36:45;3.70;99.90
3758;DHT22;1894;51.038;13.692;2024-01-16T13:39:32;3.80;99.90
3758;DHT22;1894;51.038;13.692;2024-01-16T13:42:05;4.30;99.90
3758;DHT22;1894;51.038;13.692;2024-01-16T13:44:34;4.00;99.90
3758;DHT22;1894;51.038;13.692;2024-01-16T13:47:01;4.40;99.90
3758;DHT22;1894;51.038;13.692;2024-01-16T13:49:37;4.60;99.90
3758;DHT22;1894;51.038;13.692;2024-01-16T13:52:05;4.70;99.90
3758;DHT22;1894;51.038;13.692;2024-01-16T13:54:35;4.50;99.90
3758;DHT22;1894;51.038;13.692;2024-01-16T13:57:03;4.30;99.90
3758;DHT22;1894;51.038;13.692;2024-01-16T13:59:35;4.70;99.90
3758;DHT22;1894;51.038;13.692;2024-01-16T14:02:03;5.10;99.90
3758;DHT22;1894;51.038;13.692;2024-01-16T14:04:32;4.90;99.90
3758;DHT22;1894;51.038;13.692;2024-01-16T14:06:59;5.40;99.90
3758;DHT22;1894;51.038;13.692;2024-01-16T14:09:40;5.30;99.90
3758;DHT22;1894;51.038;13.692;2024-01-16T14:12:10;6.20;99.90
3758;DHT22;1894;51.038;13.692;2024-01-16T14:14:40;5.30;99.90
3758;DHT22;1894;51.038;13.692;2024-01-16T14:17:08;4.90;99.90
3758;DHT22;1894;51.038;13.692;2024-01-16T14:19:35;4.60;99.90
3758;DHT22;1894;51.038;13.692;2024-01-16T14:22:03;4.20;99.90
3758;DHT22;1894;51.038;13.692;2024-01-16T14:24:31;4.40;99.90
3758;DHT22;1894;51.038;13.692;2024-01-16T14:26:58;3.90;99.90
3758;DHT22;1894;51.038;13.692;2024-01-16T14:29:25;3.50;99.90
3758;DHT22;1894;51.038;13.692;2024-01-16T14:31:54;3.40;99.90
3758;DHT22;1894;51.038;13.692;2024-01-16T14:34:23;3.00;99.90
3758;DHT22;1894;51.038;13.692;2024-01-16T14:36:50;3.30;99.90
3758;DHT22;1894;51.038;13.692;2024-01-16T14:39:18;3.10;99.90
3758;DHT22;1894;51.038;13.692;2024-01-16T14:41:52;3.10;99.90
3758;DHT22;1894;51.038;13.692;2024-01-16T14:44:19;3.00;99.90
3758;DHT22;1894;51.038;13.692;2024-01-16T14:46:46;3.00;99.90
3758;DHT22;1894;51.038;13.692;2024-01-16T14:49:18;3.10;99.90
3758;DHT22;1894;51.038;13.692;2024-01-16T14:51:45;3.00;99.90
3758;DHT22;1894;51.038;13.692;2024-01-16T14:54:13;2.90;99.90
3758;DHT22;1894;51.038;13.692;2024-01-16T14:56:41;2.80;99.90
3758;DHT22;1894;51.038;13.692;2024-01-16T14:59:08;2.70;99.90
3758;DHT22;1894;51.038;13.692;2024-01-16T15:01:40;2.50;99.90
3758;DHT22;1894;51.038;13.692;2024-01-16T15:04:08;2.40;99.90
3758;DHT22;1894;51.038;13.692;2024-01-16T15:06:36;2.20;99.90
3758;DHT22;1894;51.038;13.692;2024-01-16T15:09:03;2.30;99.90
3758;DHT22;1894;51.038;13.692;2024-01-16T15:11:31;2.10;99.90
3758;DHT22;1894;51.038;13.692;2024-01-16T15:13:58;2.20;99.90
3758;DHT22;1894;51.038;13.692;2024-01-16T15:16:27;2.10;99.90
3758;DHT22;1894;51.038;13.692;2024-01-16T15:18:54;1.90;99.90
3758;DHT22;1894;51.038;13.692;2024-01-16T15:21:23;1.90;99.90
3758;DHT22;1894;51.038;13.692;2024-01-16T15:23:52;1.70;99.90
3758;DHT22;1894;51.038;13.692;2024-01-16T15:26:19;1.60;99.90
3758;DHT22;1894;51.038;13.692;2024-01-16T15:28:48;1.60;99.90
3758;DHT22;1894;51.038;13.692;2024-01-16T15:31:17;1.50;99.90
3758;DHT22;1894;51.038;13.692;2024-01-16T15:33:45;1.50;99.90
3758;DHT22;1894;51.038;13.692;2024-01-16T15:36:12;1.40;99.90
3758;DHT22;1894;51.038;13.692;2024-01-16T15:38:39;1.30;99.90
3758;DHT22;1894;51.038;13.692;2024-01-16T15:41:07;1.30;99.90
3758;DHT22;1894;51.038;13.692;2024-01-16T15:43:34;1.30;99.90
3758;DHT22;1894;51.038;13.692;2024-01-16T15:46:02;1.30;99.90
3758;DHT22;1894;51.038;13.692;2024-01-16T15:48:30;1.30;99.90
3758;DHT22;1894;51.038;13.692;2024-01-16T15:51:01;1.30;99.90
3758;DHT22;1894;51.038;13.692;2024-01-16T15:53:36;1.30;99.90
3758;DHT22;1894;51.038;13.692;2024-01-16T15:56:04;1.30;99.90
3758;DHT22;1894;51.038;13.692;2024-01-16T15:58:37;1.40;99.90
3758;DHT22;1894;51.038;13.692;2024-01-16T16:01:04;1.40;99.90
3758;DHT22;1894;51.038;13.692;2024-01-16T16:03:32;1.30;99.90
3758;DHT22;1894;51.038;13.692;2024-01-16T16:05:59;1.30;99.90
3758;DHT22;1894;51.038;13.692;2024-01-16T16:08:26;1.40;99.90
3758;DHT22;1894;51.038;13.692;2024-01-16T16:10:54;1.40;99.90
3758;DHT22;1894;51.038;13.692;2024-01-16T16:13:22;1.40;99.90
3758;DHT22;1894;51.038;13.692;2024-01-16T16:15:49;1.50;99.90
3758;DHT22;1894;51.038;13.692;2024-01-16T16:18:17;1.50;99.90
3758;DHT22;1894;51.038;13.692;2024-01-16T16:20:44;1.50;99.90
3758;DHT22;1894;51.038;13.692;2024-01-16T16:23:11;1.50;99.90
3758;DHT22;1894;51.038;13.692;2024-01-16T16:25:44;1.50;99.90
3758;DHT22;1894;51.038;13.692;2024-01-16T16:28:13;1.50;99.90
3758;DHT22;1894;51.038;13.692;2024-01-16T16:30:40;1.40;99.90